Time;durP1;ratioP1;P1;durP2;ratioP2;P2;SDS_P1;SDS_P2;PMS_P1;PMS_P2;Temp;Humidity;BMP_temperature;BMP_pressure;BME280_temperature;BME280_humidity;BME280_pressure;Samples;Min_cycle;Max_cycle;Signal;HPM_P1;HPM_P2
2021/08/31 00:01:12;;;;;;;9.13;6.72;;;;;;;24.31;52.56;102408.13;4996310;28;20046;-74
2021/08/31 00:03:38;;;;;;;14.02;6.97;;;;;;;24.23;52.48;102393.97;5003857;28;20037;-74
2021/08/31 00:06:03;;;;;;;9.95;7.20;;;;;;;24.21;52.66;102396.81;5003987;28;20045;-74
2021/08/31 00:08:30;;;;;;;10.38;7.45;;;;;;;24.24;52.73;102406.31;5005439;28;20035;-74
2021/08/31 00:10:56;;;;;;;9.13;6.90;;;;;;;24.17;52.81;102394.66;5004351;28;20039;-74
2021/08/31 00:13:22;;;;;;;10.20;7.57;;;;;;;24.20;52.68;102405.81;5004041;28;20074;-74
2021/08/31 00:15:47;;;;;;;9.57;7.00;;;;;;;24.17;52.55;102414.13;4986889;28;20048;-74
2021/08/31 00:18:13;;;;;;;11.15;7.72;;;;;;;24.18;52.76;102407.81;5004044;28;20049;-74
2021/08/31 00:20:39;;;;;;;10.60;7.40;;;;;;;24.14;52.84;102395.03;4987413;28;20494;-74
2021/08/31 00:23:05;;;;;;;10.73;7.28;;;;;;;24.20;52.91;102412.97;4986844;28;20041;-74
2021/08/31 00:25:31;;;;;;;10.75;7.10;;;;;;;24.19;52.76;102411.28;5014984;28;20033;-74
2021/08/31 00:27:57;;;;;;;9.38;7.22;;;;;;;24.10;52.94;102416.66;5012405;28;20038;-74
2021/08/31 00:30:22;;;;;;;10.02;7.05;;;;;;;24.14;52.80;102419.81;5005830;28;20462;-74
2021/08/31 00:32:48;;;;;;;9.80;6.75;;;;;;;24.17;52.59;102418.63;5003187;28;20168;-74
2021/08/31 00:35:13;;;;;;;10.90;7.13;;;;;;;24.15;52.58;102416.13;4988169;28;20042;-74
2021/08/31 00:37:40;;;;;;;11.80;7.05;;;;;;;23.95;52.80;102391.72;5004001;28;20049;-74
2021/08/31 00:40:07;;;;;;;10.90;6.72;;;;;;;24.12;52.87;102419.16;4986785;28;20042;-74
2021/08/31 00:42:32;;;;;;;9.80;7.13;;;;;;;24.09;52.77;102419.50;5004985;28;20049;-74
2021/08/31 00:44:58;;;;;;;10.10;6.72;;;;;;;24.05;52.90;102412.81;5002126;28;20042;-74
2021/08/31 00:47:24;;;;;;;8.93;6.93;;;;;;;24.09;53.04;102420.31;4984179;28;20045;-74
2021/08/31 00:49:49;;;;;;;8.10;6.18;;;;;;;24.08;52.97;102413.34;5000065;28;20073;-74
2021/08/31 00:52:15;;;;;;;8.93;6.70;;;;;;;24.09;52.97;102417.66;5001463;28;20038;-74
2021/08/31 00:54:42;;;;;;;9.23;6.80;;;;;;;24.02;52.89;102410.50;5002103;28;20078;-74
2021/08/31 00:57:07;;;;;;;10.32;6.30;;;;;;;24.07;52.92;102417.00;5004911;28;20077;-74
2021/08/31 00:59:33;;;;;;;8.93;6.13;;;;;;;24.04;52.89;102408.50;5003380;28;20520;-74
2021/08/31 01:01:59;;;;;;;11.32;7.28;;;;;;;24.07;52.99;102419.66;4984380;28;20042;-74
2021/08/31 01:04:26;;;;;;;10.40;7.05;;;;;;;24.05;53.02;102420.81;4986121;28;20352;-74
2021/08/31 01:06:53;;;;;;;9.85;7.05;;;;;;;24.00;53.03;102413.34;5004146;28;20045;-74
2021/08/31 01:09:28;;;;;;;9.43;6.97;;;;;;;23.99;52.98;102408.19;5001862;28;20052;-74
2021/08/31 01:11:55;;;;;;;9.13;6.75;;;;;;;24.06;52.83;102427.81;4999562;28;20122;-74
2021/08/31 01:14:22;;;;;;;10.82;6.95;;;;;;;24.01;53.03;102424.81;4985723;28;20806;-74
2021/08/31 01:16:51;;;;;;;9.23;6.30;;;;;;;24.02;52.94;102423.81;4984068;28;20042;-74
2021/08/31 01:19:30;;;;;;;9.30;6.90;;;;;;;24.02;52.85;102421.97;5003686;28;20675;-74
2021/08/31 01:21:58;;;;;;;10.07;6.40;;;;;;;23.96;52.93;102411.19;5003443;28;20395;-74
2021/08/31 01:24:24;;;;;;;10.73;6.45;;;;;;;24.01;52.85;102420.31;5003925;28;20109;-74
2021/08/31 01:26:50;;;;;;;9.23;6.05;;;;;;;24.00;52.95;102420.50;5000520;28;20125;-74
2021/08/31 01:29:16;;;;;;;10.77;7.13;;;;;;;23.95;53.01;102414.84;5011218;28;20038;-74
2021/08/31 01:31:42;;;;;;;8.05;6.15;;;;;;;23.99;52.94;102418.84;5004618;28;20041;-74
2021/08/31 01:34:08;;;;;;;8.60;6.05;;;;;;;23.89;53.06;102399.56;5003690;28;20038;-74
2021/08/31 01:36:34;;;;;;;9.55;6.32;;;;;;;23.98;53.08;102423.31;4985842;28;20034;-74
2021/08/31 01:38:59;;;;;;;8.55;6.13;;;;;;;23.97;52.99;102418.19;5001870;28;20056;-74
2021/08/31 01:41:26;;;;;;;9.57;6.15;;;;;;;23.97;52.97;102420.84;4986769;28;20045;-74
2021/08/31 01:43:52;;;;;;;10.07;6.78;;;;;;;23.92;53.02;102408.03;4999706;28;20040;-74
2021/08/31 01:46:18;;;;;;;8.70;6.25;;;;;;;23.93;53.18;102412.38;5003832;28;20041;-74
2021/08/31 01:48:44;;;;;;;10.52;6.95;;;;;;;23.91;53.16;102397.56;5000927;28;20046;-74
2021/08/31 01:51:10;;;;;;;10.02;6.68;;;;;;;23.92;53.04;102405.38;5002710;28;20079;-74
2021/08/31 01:53:36;;;;;;;9.40;6.25;;;;;;;23.93;53.11;102398.22;5001595;28;20026;-74
2021/08/31 01:56:03;;;;;;;11.45;6.10;;;;;;;23.93;53.18;102401.72;4999837;28;20269;-74
2021/08/31 01:58:29;;;;;;;10.10;6.57;;;;;;;23.86;52.92;102402.53;5003737;28;20426;-74
2021/08/31 02:00:54;;;;;;;10.10;6.07;;;;;;;23.90;53.12;102410.03;4985332;28;20052;-74
2021/08/31 02:03:20;;;;;;;8.57;6.22;;;;;;;23.75;53.17;102393.09;5002560;28;20041;-75
2021/08/31 02:05:46;;;;;;;8.75;5.75;;;;;;;23.87;53.22;102409.53;4985857;28;20115;-74
2021/08/31 02:08:11;;;;;;;9.95;6.05;;;;;;;23.91;53.08;102418.84;5001123;28;20038;-74
2021/08/31 02:10:37;;;;;;;8.55;5.93;;;;;;;23.82;53.18;102399.41;5003537;28;20563;-74
2021/08/31 02:13:03;;;;;;;9.70;6.45;;;;;;;23.90;52.83;102415.38;4985416;28;20095;-74
2021/08/31 02:15:29;;;;;;;7.97;5.78;;;;;;;23.89;53.05;102410.22;5003195;28;20110;-74
2021/08/31 02:17:54;;;;;;;9.27;5.53;;;;;;;23.89;53.08;102410.22;5001604;28;20511;-74
2021/08/31 02:20:19;;;;;;;9.45;6.40;;;;;;;23.69;52.98;102375.13;4984644;28;20926;-74
2021/08/31 02:22:45;;;;;;;7.68;5.78;;;;;;;23.85;53.09;102416.84;5002614;28;20046;-74
2021/08/31 02:25:11;;;;;;;8.63;5.95;;;;;;;23.88;53.13;102411.19;5001071;28;20050;-74
2021/08/31 02:27:37;;;;;;;8.18;5.95;;;;;;;23.84;53.11;102418.69;5001266;28;20029;-74
2021/08/31 02:30:04;;;;;;;9.20;5.82;;;;;;;23.81;53.01;102419.03;5002517;28;20528;-74
2021/08/31 02:32:30;;;;;;;9.43;6.35;;;;;;;23.78;53.30;102414.88;5001496;28;20170;-74
2021/08/31 02:34:56;;;;;;;9.57;6.70;;;;;;;23.78;53.07;102420.19;5001609;28;20483;-74
2021/08/31 02:37:21;;;;;;;8.57;5.70;;;;;;;23.83;53.03;102419.69;5001591;28;20025;-74
2021/08/31 02:39:47;;;;;;;9.82;6.15;;;;;;;23.76;53.37;102408.06;5001036;28;20034;-74
2021/08/31 02:42:13;;;;;;;8.45;5.95;;;;;;;23.79;53.17;102407.72;5000969;28;20038;-74
2021/08/31 02:44:38;;;;;;;9.75;6.40;;;;;;;23.80;53.06;102414.69;5000848;28;20026;-74
2021/08/31 02:47:04;;;;;;;8.65;5.88;;;;;;;23.79;52.92;102413.88;5001765;28;20038;-74
2021/08/31 02:49:29;;;;;;;10.20;5.80;;;;;;;23.82;53.20;102412.69;4985862;28;20056;-74
2021/08/31 02:51:56;;;;;;;8.25;5.72;;;;;;;23.81;53.28;102411.03;5000663;28;20033;-74
2021/08/31 02:54:22;;;;;;;8.02;5.78;;;;;;;23.76;53.05;102405.41;5000127;28;20559;-74
2021/08/31 02:56:47;;;;;;;9.82;6.38;;;;;;;23.76;53.12;102410.72;4970228;28;20037;-74
2021/08/31 02:59:13;;;;;;;9.02;6.05;;;;;;;23.76;53.07;102411.56;4982215;28;20042;-74
2021/08/31 03:02:04;;;;;;;7.68;5.63;;;;;;;23.74;53.17;102404.75;5002752;28;20057;-74
2021/08/31 03:04:28;;;;;;;8.95;5.97;;;;;;;23.69;53.10;102399.91;4999023;28;20038;-74
2021/08/31 03:06:53;;;;;;;8.55;5.93;;;;;;;23.73;53.13;102409.22;5002397;28;20099;-74
2021/08/31 03:09:19;;;;;;;8.05;5.38;;;;;;;23.77;53.29;102417.69;4999417;28;20061;-74
2021/08/31 03:11:45;;;;;;;8.73;5.32;;;;;;;23.70;53.33;102400.75;5002046;28;20075;-74
2021/08/31 03:14:11;;;;;;;8.18;5.72;;;;;;;23.77;52.93;102415.88;5000348;28;20026;-74
2021/08/31 03:16:36;;;;;;;8.38;5.40;;;;;;;23.77;53.13;102423.84;5001155;28;20130;-74
2021/08/31 03:19:02;;;;;;;8.40;5.85;;;;;;;23.74;53.21;102420.69;5000492;28;20249;-74
2021/08/31 03:21:28;;;;;;;9.52;6.32;;;;;;;23.75;53.10;102415.22;4999514;28;20038;-74
2021/08/31 03:23:54;;;;;;;7.38;5.40;;;;;;;23.73;53.27;102419.03;4984327;28;20042;-74
2021/08/31 03:26:19;;;;;;;9.38;6.30;;;;;;;23.64;53.06;102407.56;4999803;28;20045;-73
2021/08/31 03:28:45;;;;;;;7.95;5.50;;;;;;;23.72;53.21;102420.03;5000308;28;20084;-74
2021/08/31 03:31:10;;;;;;;11.02;6.53;;;;;;;23.70;53.10;102414.91;4985073;28;20076;-74
2021/08/31 03:33:36;;;;;;;8.10;5.70;;;;;;;23.72;53.24;102422.69;5001669;28;20064;-74
2021/08/31 03:36:04;;;;;;;7.05;5.10;;;;;;;23.66;53.34;102407.38;5002577;28;20825;-75
2021/08/31 03:38:30;;;;;;;7.97;5.68;;;;;;;23.72;53.00;102417.38;5008415;28;20033;-74
2021/08/31 03:40:56;;;;;;;7.00;5.93;;;;;;;23.64;53.13;102412.06;4991126;28;20049;-74
2021/08/31 03:43:21;;;;;;;7.75;5.38;;;;;;;23.72;53.21;102409.41;4983312;28;20255;-74
2021/08/31 03:45:47;;;;;;;7.57;5.40;;;;;;;23.72;53.04;102414.72;5001482;28;20138;-74
2021/08/31 03:48:13;;;;;;;9.00;5.70;;;;;;;23.72;53.24;102422.69;5000951;28;20442;-74
2021/08/31 03:50:38;;;;;;;8.75;5.32;;;;;;;23.67;53.39;102423.19;5002060;28;20075;-74
2021/08/31 03:53:04;;;;;;;7.97;5.45;;;;;;;23.70;53.20;102422.03;4983219;28;20068;-74
2021/08/31 03:55:30;;;;;;;8.38;5.35;;;;;;;23.68;53.20;102426.66;5001247;28;20067;-74
2021/08/31 03:57:55;;;;;;;8.95;5.60;;;;;;;23.66;53.25;102429.50;4996703;28;20038;-74
2021/08/31 04:00:21;;;;;;;9.73;5.60;;;;;;;23.67;53.23;102432.97;4999224;28;20041;-74
2021/08/31 04:02:46;;;;;;;9.18;5.85;;;;;;;23.67;53.39;102431.16;4999617;28;20050;-74
2021/08/31 04:05:12;;;;;;;7.93;5.63;;;;;;;23.60;53.22;102432.84;5001478;28;20038;-74
2021/08/31 04:07:37;;;;;;;7.80;5.45;;;;;;;23.65;53.18;102440.31;5000582;28;20467;-74
2021/08/31 04:10:03;;;;;;;7.78;5.10;;;;;;;23.65;53.20;102437.66;5000948;28;20030;-74
2021/08/31 04:12:29;;;;;;;8.95;5.78;;;;;;;23.60;53.27;102430.16;5001373;28;20046;-74
2021/08/31 04:14:54;;;;;;;7.97;5.20;;;;;;;23.68;53.34;102438.13;5001327;28;20042;-74
2021/08/31 04:17:20;;;;;;;9.43;5.55;;;;;;;23.65;53.20;102442.97;4999958;28;20472;-74
2021/08/31 04:19:45;;;;;;;8.60;6.03;;;;;;;23.66;53.20;102439.31;5001358;28;20053;-74
2021/08/31 04:22:11;;;;;;;9.27;6.05;;;;;;;23.62;53.33;102440.63;4982848;28;20042;-74
2021/08/31 04:24:37;;;;;;;8.43;5.55;;;;;;;23.60;53.24;102435.50;5002454;28;20033;-74
2021/08/31 04:27:03;;;;;;;7.82;5.85;;;;;;;23.65;53.15;102448.28;4969910;28;20455;-74
2021/08/31 04:29:29;;;;;;;8.18;5.47;;;;;;;23.63;53.25;102439.63;5001202;28;20041;-74
2021/08/31 04:31:54;;;;;;;8.43;5.28;;;;;;;23.49;53.19;102417.16;5003210;28;20041;-74
2021/08/31 04:34:20;;;;;;;8.85;5.65;;;;;;;23.64;53.39;102446.63;4983376;28;20046;-74
2021/08/31 04:36:45;;;;;;;9.00;5.68;;;;;;;23.64;53.43;102449.28;5004364;28;20491;-74
2021/08/31 04:39:12;;;;;;;9.02;5.53;;;;;;;23.61;53.35;102449.63;4985488;28;20046;-74
2021/08/31 04:41:37;;;;;;;8.73;5.45;;;;;;;23.55;53.48;102437.78;4969795;28;20365;-74
2021/08/31 04:44:03;;;;;;;9.55;5.80;;;;;;;23.63;53.16;102448.44;5004865;28;20046;-74
2021/08/31 04:46:28;;;;;;;8.30;5.60;;;;;;;23.63;53.16;102453.78;5003641;28;20048;-74
2021/08/31 04:48:54;;;;;;;10.23;6.00;;;;;;;23.62;53.30;102454.78;5002452;28;20054;-74
2021/08/31 04:51:20;;;;;;;7.88;5.47;;;;;;;23.57;53.27;102457.09;5004305;28;20030;-74
2021/08/31 04:53:45;;;;;;;8.32;5.20;;;;;;;23.60;53.18;102454.09;5001744;28;20048;-74
2021/08/31 04:56:10;;;;;;;7.53;5.40;;;;;;;23.61;53.20;102455.78;5002684;28;20078;-74
2021/08/31 04:58:36;;;;;;;7.82;5.35;;;;;;;23.60;53.21;102455.94;4999051;28;20056;-74
2021/08/31 05:01:02;;;;;;;7.95;5.30;;;;;;;23.59;53.21;102456.94;5004357;28;20057;-74
2021/08/31 05:03:28;;;;;;;9.35;5.95;;;;;;;23.41;53.40;102433.97;5001818;28;20034;-74
2021/08/31 05:05:53;;;;;;;11.40;5.93;;;;;;;23.60;53.41;102458.59;5002925;28;20087;-74
2021/08/31 05:08:19;;;;;;;7.43;5.15;;;;;;;23.59;53.19;102462.25;5001512;28;20045;-74
2021/08/31 05:10:44;;;;;;;8.15;5.28;;;;;;;23.57;53.21;102457.09;5004459;28;20042;-74
2021/08/31 05:13:10;;;;;;;8.73;5.70;;;;;;;23.55;53.52;102452.91;4985737;28;20050;-74
2021/08/31 05:15:36;;;;;;;9.15;5.30;;;;;;;23.58;53.48;102460.59;5002274;28;20771;-74
2021/08/31 05:18:04;;;;;;;8.05;5.97;;;;;;;23.56;53.31;102458.06;5003111;28;20091;-74
2021/08/31 05:20:29;;;;;;;8.07;5.35;;;;;;;23.61;53.30;102466.41;5002422;28;20038;-74
2021/08/31 05:22:55;;;;;;;8.35;5.40;;;;;;;23.56;53.33;102460.72;5003648;28;20046;-74
2021/08/31 05:25:20;;;;;;;8.50;5.57;;;;;;;23.60;53.57;102471.88;5001741;28;20122;-74
2021/08/31 05:27:46;;;;;;;8.27;5.60;;;;;;;23.61;53.26;102468.22;5003712;28;20053;-74
2021/08/31 05:30:12;;;;;;;6.65;5.07;;;;;;;23.60;53.21;102467.41;5003468;28;20141;-74
2021/08/31 05:32:38;;;;;;;8.10;5.53;;;;;;;23.60;53.18;102466.56;5002208;28;20066;-74
2021/08/31 05:35:04;;;;;;;6.90;5.05;;;;;;;23.57;53.58;102467.75;4986228;28;20390;-74
2021/08/31 05:37:30;;;;;;;7.95;5.22;;;;;;;23.60;53.44;102475.38;5001328;28;20041;-74
2021/08/31 05:39:55;;;;;;;8.98;4.97;;;;;;;23.53;53.33;102458.41;5002603;28;20037;-74
2021/08/31 05:42:21;;;;;;;7.82;5.55;;;;;;;23.56;53.16;102465.22;5002692;28;20045;-74
2021/08/31 05:44:46;;;;;;;7.32;4.85;;;;;;;23.59;53.26;102473.72;5004093;28;20038;-74
2021/08/31 05:47:12;;;;;;;8.25;4.97;;;;;;;23.57;53.34;102470.41;5001590;28;20044;-74
2021/08/31 05:49:38;;;;;;;9.20;5.57;;;;;;;23.58;53.46;102471.22;4981439;28;20052;-73
2021/08/31 05:52:04;;;;;;;8.32;5.20;;;;;;;23.57;53.56;102475.72;4986483;28;20046;-74
2021/08/31 05:54:30;;;;;;;8.30;5.63;;;;;;;23.59;53.38;102475.56;5000037;28;20033;-74
2021/08/31 05:56:57;;;;;;;7.78;5.40;;;;;;;23.60;53.47;102479.88;5002105;28;20044;-74
2021/08/31 05:59:23;;;;;;;8.63;5.22;;;;;;;23.53;53.36;102463.72;4984818;28;20034;-74
2021/08/31 06:01:49;;;;;;;8.52;5.80;;;;;;;23.50;53.19;102464.84;5002876;28;20037;-74
2021/08/31 06:04:15;;;;;;;6.78;5.15;;;;;;;23.54;53.30;102468.03;4985628;28;20033;-74
2021/08/31 06:06:41;;;;;;;7.30;5.35;;;;;;;23.59;53.23;102478.22;5002705;28;20098;-75
2021/08/31 06:09:07;;;;;;;7.88;5.22;;;;;;;23.55;53.48;102472.38;5001834;28;20041;-75
2021/08/31 06:11:40;;;;;;;6.95;5.18;;;;;;;23.60;53.42;102485.19;4986804;28;20062;-75
2021/08/31 06:14:09;;;;;;;7.85;5.45;;;;;;;23.54;53.34;102468.03;5002192;28;20046;-74
2021/08/31 06:16:35;;;;;;;7.97;5.55;;;;;;;23.60;53.17;102491.34;4999315;28;20116;-73
2021/08/31 06:19:02;;;;;;;8.23;5.20;;;;;;;23.60;53.53;102494.00;4994008;28;20780;-73
2021/08/31 06:21:28;;;;;;;7.85;4.97;;;;;;;23.60;53.49;102487.84;4997984;28;20087;-74
2021/08/31 06:23:53;;;;;;;7.88;4.93;;;;;;;23.60;53.44;102488.69;5005025;28;20065;-73
2021/08/31 06:26:19;;;;;;;9.52;5.32;;;;;;;23.60;53.20;102493.16;5003094;28;20696;-74
2021/08/31 06:28:45;;;;;;;6.57;5.10;;;;;;;23.58;53.21;102498.66;5002390;28;20042;-74
2021/08/31 06:31:10;;;;;;;9.48;5.97;;;;;;;23.60;53.28;102498.47;4995887;28;20042;-73
2021/08/31 06:33:36;;;;;;;6.78;5.28;;;;;;;23.61;53.48;102508.13;4992165;28;20042;-74
2021/08/31 06:36:01;;;;;;;7.65;5.18;;;;;;;23.65;53.22;102504.97;4993493;28;20041;-73
2021/08/31 06:38:27;;;;;;;7.93;5.72;;;;;;;23.61;53.59;102508.13;5001358;28;20038;-73
2021/08/31 06:40:52;;;;;;;8.35;5.60;;;;;;;23.65;53.46;102510.28;4996913;28;20062;-74
2021/08/31 06:43:18;;;;;;;8.23;5.07;;;;;;;23.61;53.32;102502.81;5009229;28;20037;-74
2021/08/31 06:45:44;;;;;;;9.52;5.03;;;;;;;23.67;53.37;102512.78;4994102;28;20037;-72
2021/08/31 06:48:10;;;;;;;7.88;5.03;;;;;;;23.64;53.18;102511.28;4995053;28;20065;-72
2021/08/31 06:50:35;;;;;;;7.10;5.40;;;;;;;23.62;53.30;102513.28;4980813;28;20488;-72
2021/08/31 06:53:01;;;;;;;8.23;5.00;;;;;;;23.66;53.31;102511.13;4983242;28;20038;-73
2021/08/31 06:55:27;;;;;;;9.02;5.80;;;;;;;23.69;53.34;102516.94;5000498;28;20041;-72
2021/08/31 06:57:52;;;;;;;8.50;4.90;;;;;;;23.75;53.12;102518.13;4999591;28;20794;-73
2021/08/31 07:00:18;;;;;;;8.20;5.38;;;;;;;23.75;53.15;102520.78;4996432;28;20045;-72
2021/08/31 07:02:43;;;;;;;7.78;5.45;;;;;;;23.74;53.09;102521.78;4981892;28;20042;-73
2021/08/31 07:05:10;;;;;;;10.43;5.47;;;;;;;23.74;53.39;102533.25;4984990;28;20030;-73
2021/08/31 07:07:36;;;;;;;6.85;4.78;;;;;;;23.74;53.32;102535.91;5001315;28;20057;-73
2021/08/31 07:10:03;;;;;;;6.50;4.50;;;;;;;23.70;53.36;102537.25;4984153;28;20041;-72
2021/08/31 07:12:29;;;;;;;7.40;5.13;;;;;;;23.77;53.49;102537.41;4973461;28;20405;-73
2021/08/31 07:14:55;;;;;;;6.80;4.95;;;;;;;23.71;53.32;102533.59;4966352;28;20055;-72
2021/08/31 07:17:20;;;;;;;7.53;5.25;;;;;;;23.76;53.20;102541.88;4972176;28;20042;-71
2021/08/31 07:19:47;;;;;;;8.88;5.07;;;;;;;23.74;53.15;102543.06;4968535;28;20153;-71
2021/08/31 07:22:13;;;;;;;6.88;4.82;;;;;;;23.77;53.37;102548.88;4961601;28;20047;-72
2021/08/31 07:24:39;;;;;;;6.97;4.97;;;;;;;23.80;53.09;102545.88;4951462;28;20031;-72
2021/08/31 07:27:05;;;;;;;6.70;5.35;;;;;;;23.73;53.30;102544.88;4951015;28;20827;-73
2021/08/31 07:29:30;;;;;;;7.38;5.07;;;;;;;23.64;53.08;102527.25;4956528;28;20055;-73
2021/08/31 07:31:56;;;;;;;7.20;5.20;;;;;;;23.83;53.24;102551.88;4955035;28;20484;-73
2021/08/31 07:34:21;;;;;;;6.70;4.80;;;;;;;23.76;53.34;102546.38;4949882;28;20083;-73
2021/08/31 07:36:47;;;;;;;8.00;5.00;;;;;;;23.79;53.09;102554.84;4949986;28;20027;-72
2021/08/31 07:39:12;;;;;;;7.78;5.25;;;;;;;23.83;53.17;102550.03;4953296;28;20051;-72
2021/08/31 07:41:39;;;;;;;5.90;4.50;;;;;;;23.88;52.97;102562.84;4948599;28;20114;-72
2021/08/31 07:44:05;;;;;;;7.95;5.43;;;;;;;23.90;53.19;102567.03;4959473;28;20039;-73
2021/08/31 07:46:31;;;;;;;8.23;5.10;;;;;;;23.91;52.92;102568.69;4954319;28;20042;-72
2021/08/31 07:48:58;;;;;;;11.43;5.25;;;;;;;23.91;53.32;102571.34;4953024;28;20094;-70
2021/08/31 07:51:23;;;;;;;10.13;5.47;;;;;;;23.93;53.03;102576.50;4950990;28;20073;-70
2021/08/31 07:53:49;;;;;;;8.35;5.57;;;;;;;23.95;52.99;102575.31;4951718;28;20047;-70
2021/08/31 07:56:15;;;;;;;7.90;5.18;;;;;;;23.97;52.98;102570.66;4952734;28;20031;-70
2021/08/31 07:58:40;;;;;;;7.40;5.25;;;;;;;23.90;52.80;102561.69;4948549;28;20031;-70
2021/08/31 08:01:06;;;;;;;7.07;5.22;;;;;;;23.99;52.82;102579.31;4953412;28;20054;-70
2021/08/31 08:03:33;;;;;;;8.90;4.75;;;;;;;24.00;52.93;102580.97;4952681;28;20127;-70
2021/08/31 08:05:58;;;;;;;6.20;4.28;;;;;;;24.03;52.97;102582.47;4950843;28;20460;-70
2021/08/31 08:08:24;;;;;;;7.97;4.68;;;;;;;24.03;52.78;102585.13;4957158;28;20039;-71
2021/08/31 08:10:51;;;;;;;8.05;5.20;;;;;;;24.04;52.92;102586.78;4954402;28;20031;-70
2021/08/31 08:13:17;;;;;;;7.20;5.28;;;;;;;24.01;52.93;102576.50;5058313;28;20045;-70
2021/08/31 08:15:43;;;;;;;7.30;5.20;;;;;;;24.02;52.94;102588.78;5024533;28;20038;-70
2021/08/31 08:18:09;;;;;;;8.98;5.75;;;;;;;24.01;53.07;102590.63;5051934;28;20039;-70
2021/08/31 08:20:34;;;;;;;7.53;4.88;;;;;;;24.02;52.89;102591.47;5015352;28;20484;-70
2021/08/31 08:23:00;;;;;;;7.47;5.07;;;;;;;24.05;52.72;102596.44;5035128;28;20610;-70
2021/08/31 08:25:26;;;;;;;8.30;5.50;;;;;;;23.96;53.18;102584.97;5037884;28;20050;-70
2021/08/31 08:27:51;;;;;;;8.48;5.30;;;;;;;24.05;52.79;102601.75;5023716;28;20074;-70
2021/08/31 08:30:17;;;;;;;7.43;4.88;;;;;;;24.05;52.74;102602.59;5021430;28;20046;-70
2021/08/31 08:32:42;;;;;;;6.70;5.20;;;;;;;24.01;53.16;102603.09;4996476;28;20049;-70
2021/08/31 08:35:11;;;;;;;7.75;4.97;;;;;;;24.03;52.95;102604.59;4979007;28;20045;-70
2021/08/31 08:37:37;;;;;;;6.95;4.80;;;;;;;24.07;52.91;102613.94;4971600;28;20053;-70
2021/08/31 08:40:03;;;;;;;7.65;5.10;;;;;;;24.06;52.91;102608.78;4979101;28;20046;-70
2021/08/31 08:42:28;;;;;;;7.25;5.30;;;;;;;24.10;52.75;102610.09;4990520;28;20707;-70
2021/08/31 08:44:54;;;;;;;10.18;5.13;;;;;;;24.05;52.82;102610.59;5026742;28;20034;-70
2021/08/31 08:47:20;;;;;;;7.90;4.80;;;;;;;24.10;52.87;102618.09;5056353;28;20031;-69
2021/08/31 08:49:46;;;;;;;8.00;4.93;;;;;;;24.09;52.95;102611.94;5060675;28;20043;-69
2021/08/31 08:52:12;;;;;;;7.90;5.10;;;;;;;24.10;52.95;102613.59;4995312;28;20050;-70
2021/08/31 08:54:40;;;;;;;9.45;5.22;;;;;;;23.85;52.94;102568.50;4990887;28;20092;-69
2021/08/31 08:57:06;;;;;;;7.80;6.20;;;;;;;24.09;52.98;102617.25;4973405;28;20030;-69
2021/08/31 08:59:32;;;;;;;7.63;4.90;;;;;;;24.09;52.96;102611.94;4975592;28;20050;-69
2021/08/31 09:01:57;;;;;;;6.22;4.63;;;;;;;24.08;52.91;102612.09;4971462;28;20052;-70
2021/08/31 09:04:50;;;;;;;7.22;4.97;;;;;;;24.09;52.73;102609.28;4998420;28;20046;-70
2021/08/31 09:07:21;;;;;;;10.32;5.25;;;;;;;24.06;52.79;102612.28;5000882;28;20050;-70
2021/08/31 09:09:48;;;;;;;9.25;5.15;;;;;;;24.07;52.92;102605.94;5062867;28;20047;-70
2021/08/31 09:12:32;;;;;;;8.57;5.07;;;;;;;24.12;52.71;102613.44;5021861;28;20077;-69
2021/08/31 09:15:21;;;;;;;8.30;4.53;;;;;;;24.10;53.04;102615.44;5031153;28;20425;-70
2021/08/31 09:18:05;;;;;;;8.15;5.07;;;;;;;24.15;52.83;102614.94;5028326;28;20028;-71
2021/08/31 09:20:34;;;;;;;7.03;4.70;;;;;;;24.34;52.27;102612.78;5011226;28;20034;-68
2021/08/31 09:23:00;;;;;;;10.35;5.53;;;;;;;24.41;52.21;102612.94;5042623;28;20032;-68
2021/08/31 09:25:33;;;;;;;9.70;5.25;;;;;;;24.53;52.00;102618.78;5039857;28;20084;-68
2021/08/31 09:27:59;;;;;;;8.75;4.60;;;;;;;24.53;52.04;102606.28;5056977;28;20041;-67
2021/08/31 09:30:30;;;;;;;7.25;4.88;;;;;;;24.65;51.80;102620.09;5014768;28;20034;-70
2021/08/31 09:33:09;;;;;;;7.28;5.28;;;;;;;24.70;51.72;102621.25;5040129;28;20521;-68
2021/08/31 09:35:43;;;;;;;9.15;5.03;;;;;;;24.76;51.66;102624.22;5023023;28;20047;-71
2021/08/31 09:38:15;;;;;;;9.20;5.00;;;;;;;24.68;51.89;102628.59;5045532;28;20484;-69
2021/08/31 09:40:43;;;;;;;7.57;4.93;;;;;;;24.56;51.94;102597.13;4998567;28;20484;-70
2021/08/31 09:43:17;;;;;;;8.27;4.88;;;;;;;24.66;51.94;102625.25;4988252;28;20076;-72
2021/08/31 09:45:46;;;;;;;8.18;4.63;;;;;;;24.69;51.99;102619.59;4976009;28;20447;-70
2021/08/31 09:48:14;;;;;;;7.65;4.80;;;;;;;24.64;51.92;102616.63;5004301;28;20030;-71
2021/08/31 09:50:45;;;;;;;8.05;4.55;;;;;;;24.72;51.94;102631.75;4975508;28;20041;-70
2021/08/31 09:53:17;;;;;;;11.88;4.85;;;;;;;24.71;51.87;102622.91;4975791;28;20049;-70
2021/08/31 09:55:49;;;;;;;8.52;4.57;;;;;;;24.74;51.91;102627.06;4972915;28;20049;-70
2021/08/31 09:58:23;;;;;;;7.47;4.68;;;;;;;24.75;51.60;102626.06;4984720;28;20484;-70
2021/08/31 10:00:50;;;;;;;9.27;4.63;;;;;;;24.74;51.85;102631.56;4981991;28;20049;-70
2021/08/31 10:03:17;;;;;;;7.53;4.65;;;;;;;24.77;51.79;102634.72;4995009;28;20113;-70
2021/08/31 10:05:44;;;;;;;7.57;4.95;;;;;;;24.79;51.73;102629.25;4967968;28;20072;-70
2021/08/31 10:08:11;;;;;;;6.95;4.25;;;;;;;24.78;51.78;102636.41;4975411;28;20495;-70
2021/08/31 10:10:39;;;;;;;7.55;4.75;;;;;;;24.79;51.68;102626.59;4976538;28;20044;-70
2021/08/31 10:13:24;;;;;;;11.77;5.90;;;;;;;24.82;51.72;102635.06;4964739;28;20045;-70
2021/08/31 10:15:56;;;;;;;8.73;4.70;;;;;;;24.80;51.73;102634.41;4966885;28;20038;-70
2021/08/31 10:18:23;;;;;;;8.20;5.38;;;;;;;24.84;51.61;102642.88;4992703;28;20034;-71
2021/08/31 10:20:50;;;;;;;9.25;4.90;;;;;;;24.84;51.76;102643.72;4952116;28;20046;-70
2021/08/31 10:23:23;;;;;;;7.72;4.70;;;;;;;24.86;51.55;102647.03;4959461;28;21589;-71
2021/08/31 10:25:48;;;;;;;8.13;4.80;;;;;;;24.76;51.33;102637.56;4988713;28;20030;-71
2021/08/31 10:28:25;;;;;;;10.20;4.90;;;;;;;24.85;51.29;102647.22;4976369;28;20723;-71
2021/08/31 10:30:51;;;;;;;9.55;4.90;;;;;;;24.88;51.42;102657.53;4992913;28;20398;-71
2021/08/31 10:33:43;;;;;;;10.38;5.30;;;;;;;24.87;51.54;102656.69;4963173;28;20050;-70
2021/08/31 10:36:11;;;;;;;8.60;5.05;;;;;;;24.88;51.30;102655.69;4999464;28;20531;-71
2021/08/31 10:38:40;;;;;;;9.85;5.47;;;;;;;24.88;51.45;102661.03;5026688;28;20388;-71
2021/08/31 10:41:51;;;;;;;8.73;4.93;;;;;;;24.90;51.40;102659.03;5034298;28;20071;-71
2021/08/31 10:44:43;;;;;;;7.40;4.30;;;;;;;24.90;51.42;102661.69;5012091;28;20081;-71
2021/08/31 10:47:12;;;;;;;8.15;4.85;;;;;;;24.89;51.28;102657.34;4958880;28;21820;-70
2021/08/31 10:49:57;;;;;;;6.90;4.40;;;;;;;24.85;51.48;102650.72;4992333;28;20467;-70
2021/08/31 10:52:50;;;;;;;7.22;4.50;;;;;;;24.87;51.37;102647.88;4974680;28;20050;-70
2021/08/31 10:55:25;;;;;;;8.40;4.72;;;;;;;24.95;51.15;102659.34;4985262;28;20040;-70
2021/08/31 10:57:51;;;;;;;7.40;4.70;;;;;;;24.94;51.32;102660.34;4978054;28;20444;-70
2021/08/31 11:00:16;;;;;;;7.95;4.60;;;;;;;24.94;51.34;102655.00;4957347;28;20484;-70
2021/08/31 11:02:48;;;;;;;10.32;4.45;;;;;;;24.78;51.14;102623.09;4977522;28;20044;-70
2021/08/31 11:05:26;;;;;;;9.00;4.55;;;;;;;24.95;51.29;102661.16;4976530;28;20038;-71
2021/08/31 11:07:59;;;;;;;8.10;4.28;;;;;;;24.98;51.17;102666.19;4989252;28;20033;-70
2021/08/31 11:10:27;;;;;;;8.98;4.88;;;;;;;24.93;51.28;102657.84;4967535;28;20077;-71
2021/08/31 11:12:54;;;;;;;8.68;4.72;;;;;;;24.96;51.15;102654.88;4989079;28;20073;-71
2021/08/31 11:15:21;;;;;;;8.45;4.88;;;;;;;24.94;51.16;102663.00;4983352;28;20057;-71
2021/08/31 11:17:48;;;;;;;8.48;4.85;;;;;;;24.85;51.18;102647.22;4996902;28;20084;-71
2021/08/31 11:20:19;;;;;;;8.48;4.70;;;;;;;24.95;51.11;102667.31;4982626;28;20493;-71
2021/08/31 11:22:48;;;;;;;9.60;4.82;;;;;;;24.98;51.08;102660.84;4990513;28;20488;-71
2021/08/31 11:25:15;;;;;;;9.07;4.95;;;;;;;24.98;51.26;102669.69;4962892;28;20049;-71